| time (UTC) | temp F | wind direction | speed knots | gust knots | rain 1hr in | rain 24hr in | rain mn in | humidity % | barometer mb |
| 20260508064751 | 57 | 186 | 0.0 | 0.9 | 0.00 | 0.00 | 0.00 | 22 | 1017.8 |
| 20260508064249 | 57 | 135 | 1.7 | 2.6 | 0.00 | 0.00 | 0.00 | 22 | 1017.9 |
| 20260508063746 | 56 | 114 | 1.7 | 2.6 | 0.00 | 0.00 | 0.00 | 24 | 1017.8 |
| 20260508063244 | 56 | 136 | 0.9 | 0.9 | 0.00 | 0.00 | 0.00 | 25 | 1018.0 |
| 20260508062741 | 56 | 147 | 0.0 | 0.0 | 0.00 | 0.00 | 0.00 | 26 | 1017.9 |
| 20260508062239 | 57 | 195 | 0.0 | 0.0 | 0.00 | 0.00 | 0.00 | 26 | 1018.0 |
| 20260508061735 | 57 | 197 | 0.9 | 0.9 | 0.00 | 0.00 | 0.00 | 25 | 1018.0 |
| 20260508061232 | 57 | 196 | 2.6 | 2.6 | 0.00 | 0.00 | 0.00 | 24 | 1017.8 |
| 20260508060729 | 58 | 195 | 0.0 | 0.0 | 0.00 | 0.00 | 0.00 | 24 | 1017.8 |
| 20260508060227 | 59 | 127 | 0.9 | 0.9 | 0.00 | 0.00 | 0.00 | 21 | 1017.9 |
| 20260508055722 | 59 | 140 | 0.0 | 0.0 | 0.00 | 0.00 | 0.00 | 21 | 1017.6 |
| 20260508055219 | 59 | 133 | 0.0 | 0.9 | 0.00 | 0.00 | 0.00 | 21 | 1017.6 |
| 20260508054715 | 59 | 131 | 0.9 | 1.7 | 0.00 | 0.00 | 0.00 | 21 | 1017.6 |
| 20260508054214 | 60 | 152 | 0.9 | 1.7 | 0.00 | 0.00 | 0.00 | 21 | 1017.7 |
| 20260508053710 | 59 | 124 | 1.7 | 2.6 | 0.00 | 0.00 | 0.00 | 21 | 1017.8 |
| 20260508053208 | 59 | 109 | 1.7 | 1.7 | 0.00 | 0.00 | 0.00 | 22 | 1017.6 |
| 20260508052705 | 59 | 118 | 1.7 | 1.7 | 0.00 | 0.00 | 0.00 | 22 | 1017.8 |
| 20260508052202 | 59 | 164 | 0.9 | 0.9 | 0.00 | 0.00 | 0.00 | 22 | 1017.7 |
| 20260508051658 | 59 | 183 | 1.7 | 1.7 | 0.00 | 0.00 | 0.00 | 22 | 1017.9 |
| 20260508051154 | 59 | 165 | 0.9 | 1.7 | 0.00 | 0.00 | 0.00 | 23 | 1018.0 |
| 20260508050650 | 59 | 166 | 0.9 | 0.9 | 0.00 | 0.00 | 0.00 | 22 | 1017.8 |
| 20260508050148 | 60 | 164 | 0.0 | 0.0 | 0.00 | 0.00 | 0.00 | 22 | 1018.0 |
| 20260508045643 | 60 | 115 | 1.7 | 1.7 | 0.00 | 0.00 | 0.00 | 21 | 1017.9 |
| 20260508045141 | 58 | 155 | 0.0 | 0.0 | 0.00 | 0.00 | 0.00 | 24 | 1017.7 |
| 20260508044638 | 59 | 158 | 0.0 | 0.0 | 0.00 | 0.00 | 0.00 | 24 | 1017.6 |
| 20260508044134 | 59 | 161 | 0.0 | 0.0 | 0.00 | 0.00 | 0.00 | 24 | 1017.7 |
| 20260508043631 | 60 | 165 | 0.0 | 0.0 | 0.00 | 0.00 | 0.00 | 23 | 1017.7 |
| 20260508043129 | 60 | 154 | 0.9 | 0.9 | 0.00 | 0.00 | 0.00 | 23 | 1017.7 |
| 20260508042625 | 61 | 160 | 0.0 | 0.0 | 0.00 | 0.00 | 0.00 | 22 | 1017.7 |
| 20260508042123 | 62 | 160 | 0.0 | 0.9 | 0.00 | 0.00 | 0.00 | 21 | 1017.6 |
| 20260508041618 | 62 | 258 | 1.7 | 1.7 | 0.00 | 0.00 | 0.00 | 20 | 1017.7 |
| 20260508041115 | 63 | 169 | 0.0 | 0.9 | 0.00 | 0.00 | 0.00 | 20 | 1017.7 |
| 20260508040612 | 62 | 130 | 1.7 | 1.7 | 0.00 | 0.00 | 0.00 | 18 | 1017.7 |
| 20260508040110 | 63 | 207 | 0.9 | 0.9 | 0.00 | 0.00 | 0.00 | 18 | 1017.6 |
| 20260508035607 | 62 | 180 | 0.0 | 0.0 | 0.00 | 0.00 | 0.00 | 17 | 1017.6 |
| 20260508035104 | 63 | 156 | 0.0 | 0.9 | 0.00 | 0.00 | 0.00 | 18 | 1017.5 |
| 20260508034601 | 64 | 179 | 0.0 | 0.0 | 0.00 | 0.00 | 0.00 | 16 | 1017.3 |
| 20260508034058 | 65 | 183 | 0.0 | 0.0 | 0.00 | 0.00 | 0.00 | 15 | 1017.6 |
| 20260508033555 | 66 | 184 | 0.0 | 0.0 | 0.00 | 0.00 | 0.00 | 14 | 1017.1 |
| 20260508033054 | 66 | 308 | 1.7 | 1.7 | 0.00 | 0.00 | 0.00 | 13 | 1017.1 |
| 20260508032549 | 66 | 198 | 0.9 | 0.9 | 0.00 | 0.00 | 0.00 | 13 | 1017.0 |
| 20260508032047 | 66 | 188 | 0.0 | 0.0 | 0.00 | 0.00 | 0.00 | 14 | 1016.9 |
| 20260508031544 | 66 | 181 | 0.0 | 0.0 | 0.00 | 0.00 | 0.00 | 14 | 1016.8 |
| 20260508031040 | 65 | 180 | 0.0 | 0.0 | 0.00 | 0.00 | 0.00 | 15 | 1016.8 |
| 20260508030537 | 66 | 174 | 0.0 | 0.0 | 0.00 | 0.00 | 0.00 | 15 | 1016.6 |
| 20260508030035 | 66 | 192 | 0.0 | 0.0 | 0.00 | 0.00 | 0.00 | 14 | 1016.5 |
| 20260508025530 | 68 | 186 | 0.0 | 0.0 | 0.00 | 0.00 | 0.00 | 15 | 1016.5 |
| 20260508025028 | 68 | 183 | 0.0 | 0.0 | 0.00 | 0.00 | 0.00 | 15 | 1016.4 |
| 20260508024524 | 69 | 176 | 0.0 | 0.0 | 0.00 | 0.00 | 0.00 | 15 | 1016.5 |
| 20260508024021 | 69 | 205 | 0.9 | 1.7 | 0.00 | 0.00 | 0.00 | 14 | 1016.2 |
| 20260508023517 | 69 | 195 | 1.7 | 1.7 | 0.00 | 0.00 | 0.00 | 14 | 1016.1 |
| 20260508023015 | 68 | 200 | 0.9 | 1.7 | 0.00 | 0.00 | 0.00 | 15 | 1016.3 |
| 20260508022510 | 68 | 231 | 0.9 | 1.7 | 0.00 | 0.00 | 0.00 | 16 | 1016.3 |
| 20260508022007 | 68 | 191 | 0.0 | 0.0 | 0.00 | 0.00 | 0.00 | 15 | 1015.9 |
| 20260508021503 | 69 | 166 | 0.0 | 0.9 | 0.00 | 0.00 | 0.00 | 15 | 1015.8 |
| 20260508020959 | 71 | 188 | 0.0 | 0.0 | 0.00 | 0.00 | 0.00 | 14 | 1015.9 |
| 20260508020457 | 71 | 224 | 2.6 | 2.6 | 0.00 | 0.00 | 0.00 | 14 | 1015.8 |
| 20260508015954 | 71 | 189 | 1.7 | 2.6 | 0.00 | 0.00 | 0.00 | 14 | 1015.8 |
| 20260508015452 | 72 | 178 | 1.7 | 1.7 | 0.00 | 0.00 | 0.00 | 13 | 1015.7 |
| 20260508014948 | 72 | 185 | 4.3 | 5.2 | 0.00 | 0.00 | 0.00 | 13 | 1015.8 |
| 20260508014445 | 72 | 195 | 4.3 | 5.2 | 0.00 | 0.00 | 0.00 | 13 | 1015.8 |
| 20260508013941 | 72 | 209 | 5.2 | 6.1 | 0.00 | 0.00 | 0.00 | 13 | 1015.4 |
| 20260508013437 | 73 | 196 | 2.6 | 3.5 | 0.00 | 0.00 | 0.00 | 13 | 1015.5 |
| 20260508012935 | 73 | 213 | 3.5 | 3.5 | 0.00 | 0.00 | 0.00 | 13 | 1015.4 |
| 20260508012431 | 73 | 174 | 3.5 | 6.1 | 0.00 | 0.00 | 0.00 | 13 | 1015.4 |
| 20260508011929 | 74 | 191 | 1.7 | 1.7 | 0.00 | 0.00 | 0.00 | 13 | 1015.4 |
| 20260508011427 | 74 | 208 | 2.6 | 2.6 | 0.00 | 0.00 | 0.00 | 13 | 1015.2 |
| 20260508010924 | 74 | 196 | 1.7 | 2.6 | 0.00 | 0.00 | 0.00 | 13 | 1015.4 |
| 20260508010421 | 74 | 185 | 7.8 | 8.7 | 0.00 | 0.00 | 0.00 | 12 | 1015.0 |
| 20260508005918 | 74 | 204 | 2.6 | 3.5 | 0.00 | 0.00 | 0.00 | 12 | 1015.4 |
| 20260508005415 | 74 | 187 | 3.5 | 3.5 | 0.00 | 0.00 | 0.00 | 12 | 1015.2 |
| 20260508004911 | 75 | 199 | 4.3 | 5.2 | 0.00 | 0.00 | 0.00 | 12 | 1015.2 |
| 20260508004407 | 75 | 212 | 5.2 | 6.1 | 0.00 | 0.00 | 0.00 | 11 | 1015.2 |
| 20260508003904 | 75 | 218 | 5.2 | 6.1 | 0.00 | 0.00 | 0.00 | 12 | 1015.0 |
| 20260508003401 | 75 | 182 | 2.6 | 2.6 | 0.00 | 0.00 | 0.00 | 11 | 1015.1 |
| 20260508002858 | 75 | 198 | 5.2 | 6.1 | 0.00 | 0.00 | 0.00 | 11 | 1015.1 |
| 20260508002354 | 75 | 220 | 7.0 | 7.0 | 0.00 | 0.00 | 0.00 | 11 | 1015.1 |
| 20260508001851 | 75 | 190 | 6.1 | 7.0 | 0.00 | 0.00 | 0.00 | 11 | 1015.1 |
| 20260508001347 | 75 | 172 | 1.7 | 1.7 | 0.00 | 0.00 | 0.00 | 11 | 1015.4 |
| 20260508000843 | 75 | 155 | 3.5 | 5.2 | 0.00 | 0.00 | 0.00 | 11 | 1015.4 |
| 20260508000342 | 75 | 172 | 6.1 | 7.8 | 0.00 | 0.00 | 0.00 | 11 | 1015.2 |
| 20260507235836 | 75 | 191 | 7.8 | 8.7 | 0.00 | 0.00 | 0.00 | 11 | 1015.4 |
| 20260507235334 | 75 | 186 | 3.5 | 5.2 | 0.00 | 0.00 | 0.00 | 11 | 1015.5 |
| 20260507234831 | 75 | 183 | 5.2 | 5.2 | 0.00 | 0.00 | 0.00 | 11 | 1015.4 |
| 20260507234328 | 76 | 178 | 5.2 | 7.0 | 0.00 | 0.00 | 0.00 | 11 | 1015.4 |
| 20260507233824 | 76 | 183 | 3.5 | 5.2 | 0.00 | 0.00 | 0.00 | 11 | 1015.5 |
| 20260507233322 | 76 | 185 | 3.5 | 3.5 | 0.00 | 0.00 | 0.00 | 10 | 1015.4 |
| 20260507232820 | 76 | 181 | 3.5 | 5.2 | 0.00 | 0.00 | 0.00 | 10 | 1015.5 |
| 20260507232316 | 75 | 184 | 3.5 | 5.2 | 0.00 | 0.00 | 0.00 | 11 | 1015.6 |
| 20260507231813 | 75 | 199 | 3.5 | 5.2 | 0.00 | 0.00 | 0.00 | 11 | 1015.8 |
| 20260507231310 | 77 | 255 | 4.3 | 5.2 | 0.00 | 0.00 | 0.00 | 10 | 1015.9 |
| 20260507230806 | 76 | 185 | 3.5 | 6.1 | 0.00 | 0.00 | 0.00 | 11 | 1015.8 |
| 20260507230303 | 76 | 218 | 5.2 | 7.0 | 0.00 | 0.00 | 0.00 | 10 | 1015.8 |
| 20260507225803 | 77 | 203 | 2.6 | 2.6 | 0.00 | 0.00 | 0.00 | 10 | 1015.9 |
| 20260507225259 | 77 | 199 | 7.0 | 8.7 | 0.00 | 0.00 | 0.00 | 11 | 1015.9 |
| 20260507224755 | 75 | 183 | 2.6 | 2.6 | 0.00 | 0.00 | 0.00 | 11 | 1015.9 |
| 20260507224253 | 75 | 202 | 3.5 | 5.2 | 0.00 | 0.00 | 0.00 | 11 | 1016.1 |
| 20260507223749 | 75 | 169 | 2.6 | 2.6 | 0.00 | 0.00 | 0.00 | 11 | 1016.1 |
| 20260507223246 | 75 | 139 | 4.3 | 5.2 | 0.00 | 0.00 | 0.00 | 12 | 1016.1 |
| 20260507222743 | 75 | 209 | 1.7 | 1.7 | 0.00 | 0.00 | 0.00 | 12 | 1016.5 |
| 20260507222238 | 75 | 156 | 3.5 | 5.2 | 0.00 | 0.00 | 0.00 | 12 | 1016.4 |
| 20260507221736 | 75 | 190 | 5.2 | 6.1 | 0.00 | 0.00 | 0.00 | 12 | 1016.5 |
| 20260507221232 | 75 | 199 | 0.9 | 1.7 | 0.00 | 0.00 | 0.00 | 13 | 1016.8 |
| 20260507220728 | 75 | 190 | 0.0 | 0.0 | 0.00 | 0.00 | 0.00 | 12 | 1016.6 |
| 20260507220227 | 74 | 160 | 3.5 | 3.5 | 0.00 | 0.00 | 0.00 | 13 | 1016.9 |
| 20260507215722 | 75 | 147 | 3.5 | 5.2 | 0.00 | 0.00 | 0.00 | 13 | 1017.0 |
| 20260507215220 | 74 | 165 | 0.9 | 1.7 | 0.00 | 0.00 | 0.00 | 13 | 1016.9 |
| 20260507214717 | 74 | 248 | 3.5 | 3.5 | 0.00 | 0.00 | 0.00 | 13 | 1017.2 |
| 20260507214214 | 72 | 223 | 3.5 | 5.2 | 0.00 | 0.00 | 0.00 | 14 | 1016.9 |
| 20260507213709 | 74 | 251 | 3.5 | 5.2 | 0.00 | 0.00 | 0.00 | 14 | 1017.2 |
| 20260507213207 | 73 | 167 | 1.7 | 3.5 | 0.00 | 0.00 | 0.00 | 14 | 1017.5 |
| 20260507212703 | 73 | 209 | 2.6 | 3.5 | 0.00 | 0.00 | 0.00 | 14 | 1017.5 |
| 20260507212200 | 74 | 154 | 1.7 | 1.7 | 0.00 | 0.00 | 0.00 | 14 | 1017.6 |
| 20260507211657 | 72 | 172 | 0.9 | 2.6 | 0.00 | 0.00 | 0.00 | 13 | 1017.6 |
| 20260507211152 | 72 | 182 | 1.7 | 2.6 | 0.00 | 0.00 | 0.00 | 14 | 1017.8 |
| 20260507210650 | 72 | 222 | 7.0 | 7.8 | 0.00 | 0.00 | 0.00 | 15 | 1017.9 |
| 20260507210146 | 73 | 152 | 2.6 | 3.5 | 0.00 | 0.00 | 0.00 | 16 | 1018.0 |
| 20260507205643 | 73 | 213 | 4.3 | 5.2 | 0.00 | 0.00 | 0.00 | 15 | 1018.3 |
| 20260507205140 | 72 | 192 | 0.0 | 0.9 | 0.00 | 0.00 | 0.00 | 15 | 1018.4 |
| 20260507204636 | 72 | 219 | 3.5 | 5.2 | 0.00 | 0.00 | 0.00 | 16 | 1018.4 |
| 20260507204134 | 70 | 189 | 0.9 | 1.7 | 0.00 | 0.00 | 0.00 | 16 | 1018.5 |
| 20260507203631 | 72 | 167 | 5.2 | 7.0 | 0.00 | 0.00 | 0.00 | 16 | 1018.6 |
| 20260507203129 | 71 | 203 | 2.6 | 3.5 | 0.00 | 0.00 | 0.00 | 17 | 1018.7 |
| 20260507202624 | 71 | 213 | 5.2 | 6.1 | 0.00 | 0.00 | 0.00 | 17 | 1018.7 |
| 20260507202121 | 70 | 209 | 2.6 | 5.2 | 0.00 | 0.00 | 0.00 | 18 | 1018.9 |
| 20260507201616 | 70 | 185 | 2.6 | 2.6 | 0.00 | 0.00 | 0.00 | 17 | 1019.0 |
| 20260507201113 | 71 | 182 | 1.7 | 1.7 | 0.00 | 0.00 | 0.00 | 17 | 1019.0 |
| 20260507200608 | 70 | 191 | 1.7 | 2.6 | 0.00 | 0.00 | 0.00 | 17 | 1019.2 |
| 20260507200105 | 69 | 191 | 1.7 | 2.6 | 0.00 | 0.00 | 0.00 | 17 | 1019.4 |
| 20260507195602 | 71 | 176 | 4.3 | 6.1 | 0.00 | 0.00 | 0.00 | 17 | 1019.6 |
| 20260507195059 | 69 | 186 | 4.3 | 5.2 | 0.00 | 0.00 | 0.00 | 18 | 1019.2 |
| 20260507194555 | 68 | 182 | 5.2 | 6.1 | 0.00 | 0.00 | 0.00 | 18 | 1019.4 |
| 20260507194051 | 68 | 209 | 0.9 | 0.9 | 0.00 | 0.00 | 0.00 | 18 | 1019.6 |
| 20260507193549 | 69 | 72 | 3.5 | 3.5 | 0.00 | 0.00 | 0.00 | 18 | 1019.6 |
| 20260507193046 | 70 | 199 | 2.6 | 3.5 | 0.00 | 0.00 | 0.00 | 17 | 1019.7 |
| 20260507192542 | 67 | 167 | 0.9 | 0.9 | 0.00 | 0.00 | 0.00 | 19 | 1019.7 |
| 20260507192039 | 67 | 36 | 3.5 | 3.5 | 0.00 | 0.00 | 0.00 | 19 | 1020.0 |
| 20260507191534 | 68 | 285 | 3.5 | 5.2 | 0.00 | 0.00 | 0.00 | 18 | 1020.1 |
| 20260507191032 | 68 | 118 | 2.6 | 5.2 | 0.00 | 0.00 | 0.00 | 18 | 1020.3 |
| 20260507190529 | 69 | 238 | 1.7 | 1.7 | 0.00 | 0.00 | 0.00 | 18 | 1020.4 |
| 20260507190027 | 66 | 93 | 1.7 | 1.7 | 0.00 | 0.00 | 0.00 | 19 | 1020.3 |
| 20260507185526 | 67 | 316 | 0.9 | 1.7 | 0.00 | 0.00 | 0.00 | 19 | 1020.5 |
| 20260507185021 | 67 | 151 | 0.0 | 0.9 | 0.00 | 0.00 | 0.00 | 18 | 1020.6 |
| 20260507184520 | 66 | 197 | 1.7 | 1.7 | 0.00 | 0.00 | 0.00 | 19 | 1020.5 |
| 20260507184018 | 67 | 180 | 0.0 | 0.0 | 0.00 | 0.00 | 0.00 | 17 | 1020.7 |
| 20260507183513 | 66 | 188 | 0.0 | 0.9 | 0.00 | 0.00 | 0.00 | 21 | 1020.8 |
| 20260507183011 | 64 | 330 | 1.7 | 1.7 | 0.00 | 0.00 | 0.00 | 22 | 1021.0 |
| 20260507182507 | 64 | 110 | 1.7 | 1.7 | 0.00 | 0.00 | 0.00 | 23 | 1021.2 |
| 20260507182003 | 65 | 190 | 1.7 | 2.6 | 0.00 | 0.00 | 0.00 | 21 | 1021.4 |
| 20260507181500 | 64 | 181 | 0.9 | 1.7 | 0.00 | 0.00 | 0.00 | 23 | 1021.3 |
| 20260507180956 | 66 | 70 | 1.7 | 1.7 | 0.00 | 0.00 | 0.00 | 21 | 1021.2 |
| 20260507180452 | 64 | 168 | 0.0 | 0.0 | 0.00 | 0.00 | 0.00 | 23 | 1021.5 |
| 20260507175948 | 65 | 208 | 1.7 | 2.6 | 0.00 | 0.00 | 0.00 | 24 | 1021.3 |
| 20260507175446 | 64 | 213 | 0.9 | 1.7 | 0.00 | 0.00 | 0.00 | 24 | 1021.8 |
| 20260507174943 | 63 | 164 | 0.9 | 1.7 | 0.00 | 0.00 | 0.00 | 23 | 1021.9 |
| 20260507174440 | 66 | 170 | 0.9 | 1.7 | 0.00 | 0.00 | 0.00 | 23 | 1021.8 |
| 20260507173937 | 64 | 174 | 1.7 | 1.7 | 0.00 | 0.00 | 0.00 | 24 | 1022.0 |
| 20260507173434 | 62 | 203 | 0.9 | 0.9 | 0.00 | 0.00 | 0.00 | 26 | 1021.9 |
| 20260507172931 | 63 | 310 | 3.5 | 3.5 | 0.00 | 0.00 | 0.00 | 25 | 1022.0 |
| 20260507172428 | 62 | 173 | 0.0 | 0.9 | 0.00 | 0.00 | 0.00 | 25 | 1022.0 |
| 20260507171924 | 62 | 42 | 1.7 | 1.7 | 0.00 | 0.00 | 0.00 | 26 | 1022.2 |
| 20260507171420 | 62 | 43 | 1.7 | 1.7 | 0.00 | 0.00 | 0.00 | 27 | 1022.2 |
| 20260507170918 | 60 | 356 | 2.6 | 3.5 | 0.00 | 0.00 | 0.00 | 28 | 1022.4 |
| 20260507170414 | 60 | 281 | 3.5 | 3.5 | 0.00 | 0.00 | 0.00 | 31 | 1022.7 |
| 20260507165910 | 60 | 217 | 0.9 | 1.7 | 0.00 | 0.00 | 0.00 | 32 | 1022.4 |
| 20260507165406 | 61 | 334 | 3.5 | 3.5 | 0.00 | 0.00 | 0.00 | 31 | 1022.5 |
| 20260507164902 | 60 | 280 | 3.5 | 3.5 | 0.00 | 0.00 | 0.00 | 33 | 1022.5 |
| 20260507164400 | 60 | 257 | 2.6 | 2.6 | 0.00 | 0.00 | 0.00 | 34 | 1022.5 |
| 20260507163857 | 60 | 49 | 2.6 | 2.6 | 0.00 | 0.00 | 0.00 | 33 | 1022.6 |
| 20260507163354 | 59 | 184 | 1.7 | 1.7 | 0.00 | 0.00 | 0.00 | 36 | 1022.6 |
| 20260507162851 | 59 | 190 | 1.7 | 2.6 | 0.00 | 0.00 | 0.00 | 36 | 1022.8 |
| 20260507162346 | 57 | 339 | 2.6 | 2.6 | 0.00 | 0.00 | 0.00 | 38 | 1022.8 |
| 20260507161843 | 57 | 34 | 3.5 | 5.2 | 0.00 | 0.00 | 0.00 | 37 | 1022.8 |
| 20260507161340 | 57 | 44 | 3.5 | 3.5 | 0.00 | 0.00 | 0.00 | 38 | 1023.1 |
| 20260507160836 | 58 | 31 | 2.6 | 2.6 | 0.00 | 0.00 | 0.00 | 38 | 1022.7 |
| 20260507160332 | 56 | 274 | 2.6 | 2.6 | 0.00 | 0.00 | 0.00 | 40 | 1022.9 |
| 20260507155829 | 56 | 292 | 1.7 | 2.6 | 0.00 | 0.00 | 0.00 | 40 | 1022.8 |
| 20260507155325 | 55 | 32 | 1.7 | 1.7 | 0.00 | 0.00 | 0.00 | 43 | 1022.9 |
| 20260507154821 | 56 | 357 | 1.7 | 3.5 | 0.00 | 0.00 | 0.00 | 42 | 1022.9 |
| 20260507154319 | 55 | 303 | 2.6 | 2.6 | 0.00 | 0.00 | 0.00 | 44 | 1023.1 |
| 20260507153815 | 54 | 25 | 7.0 | 7.8 | 0.00 | 0.00 | 0.00 | 44 | 1023.3 |
| 20260507153312 | 53 | 315 | 3.5 | 3.5 | 0.00 | 0.00 | 0.00 | 49 | 1023.1 |
| 20260507152808 | 53 | 90 | 4.3 | 5.2 | 0.00 | 0.00 | 0.00 | 47 | 1023.2 |
| 20260507152306 | 53 | 258 | 3.5 | 6.1 | 0.00 | 0.00 | 0.00 | 49 | 1023.3 |
| 20260507151800 | 52 | 42 | 1.7 | 1.7 | 0.00 | 0.00 | 0.00 | 51 | 1023.2 |
| 20260507151257 | 52 | 320 | 3.5 | 5.2 | 0.00 | 0.00 | 0.00 | 52 | 1023.5 |
| 20260507150754 | 51 | 46 | 1.7 | 2.6 | 0.00 | 0.00 | 0.00 | 54 | 1023.4 |
| 20260507150251 | 50 | 51 | 2.6 | 3.5 | 0.00 | 0.00 | 0.00 | 55 | 1023.4 |
| 20260507145747 | 50 | 9 | 3.5 | 5.2 | 0.00 | 0.00 | 0.00 | 55 | 1023.5 |
| 20260507145243 | 50 | 29 | 4.3 | 7.0 | 0.00 | 0.00 | 0.00 | 57 | 1023.6 |
| 20260507144741 | 50 | 81 | 1.7 | 1.7 | 0.00 | 0.00 | 0.00 | 58 | 1023.5 |
| 20260507144238 | 49 | 356 | 5.2 | 7.0 | 0.00 | 0.00 | 0.00 | 59 | 1023.8 |
| 20260507143735 | 49 | 17 | 4.3 | 6.1 | 0.00 | 0.00 | 0.00 | 59 | 1023.8 |
| 20260507143232 | 49 | 39 | 4.3 | 5.2 | 0.00 | 0.00 | 0.00 | 59 | 1023.5 |
| 20260507142728 | 48 | 5 | 5.2 | 7.8 | 0.00 | 0.00 | 0.00 | 60 | 1023.5 |
| 20260507142224 | 47 | 41 | 5.2 | 6.1 | 0.00 | 0.00 | 0.00 | 62 | 1023.6 |
| 20260507141721 | 46 | 347 | 4.3 | 6.1 | 0.00 | 0.00 | 0.00 | 64 | 1023.6 |
| 20260507141218 | 46 | 22 | 5.2 | 7.8 | 0.00 | 0.00 | 0.00 | 65 | 1023.9 |
| 20260507140714 | 46 | 34 | 5.2 | 6.1 | 0.00 | 0.00 | 0.00 | 65 | 1023.8 |
| 20260507140212 | 45 | 36 | 3.5 | 5.2 | 0.00 | 0.00 | 0.00 | 67 | 1023.6 |
| 20260507135708 | 45 | 10 | 8.7 | 11.3 | 0.00 | 0.00 | 0.00 | 67 | 1023.8 |
| 20260507135206 | 45 | 51 | 5.2 | 7.8 | 0.00 | 0.00 | 0.00 | 68 | 1023.8 |
| 20260507134702 | 45 | 59 | 7.0 | 8.7 | 0.00 | 0.00 | 0.00 | 68 | 1023.8 |
| 20260507134158 | 44 | 29 | 5.2 | 7.0 | 0.00 | 0.00 | 0.00 | 70 | 1023.5 |
| 20260507133654 | 43 | 40 | 2.6 | 2.6 | 0.00 | 0.00 | 0.00 | 71 | 1023.6 |
| 20260507133152 | 43 | 50 | 9.6 | 13.0 | 0.00 | 0.00 | 0.00 | 72 | 1023.4 |
| 20260507132649 | 43 | 50 | 3.5 | 3.5 | 0.00 | 0.00 | 0.00 | 73 | 1023.4 |
| 20260507132145 | 42 | 37 | 5.2 | 6.1 | 0.00 | 0.00 | 0.00 | 75 | 1023.6 |
| 20260507131643 | 42 | 20 | 2.6 | 3.5 | 0.00 | 0.00 | 0.00 | 75 | 1023.5 |
| 20260507131140 | 41 | 9 | 2.6 | 3.5 | 0.00 | 0.00 | 0.00 | 75 | 1023.4 |
| 20260507130636 | 41 | 19 | 4.3 | 6.1 | 0.00 | 0.00 | 0.00 | 76 | 1023.4 |
| 20260507130134 | 41 | 280 | 3.5 | 5.2 | 0.00 | 0.00 | 0.00 | 76 | 1023.3 |
| 20260507125633 | 41 | 32 | 3.5 | 3.5 | 0.00 | 0.00 | 0.00 | 76 | 1023.6 |
| 20260507125130 | 40 | 64 | 3.5 | 3.5 | 0.00 | 0.00 | 0.00 | 78 | 1023.4 |
| 20260507124626 | 40 | 331 | 3.5 | 5.2 | 0.00 | 0.00 | 0.00 | 77 | 1023.4 |
| 20260507124124 | 40 | 9 | 5.2 | 6.1 | 0.00 | 0.00 | 0.00 | 77 | 1023.5 |
| 20260507123622 | 40 | 19 | 2.6 | 2.6 | 0.00 | 0.00 | 0.00 | 76 | 1023.4 |
| 20260507123118 | 40 | 13 | 7.0 | 8.7 | 0.00 | 0.00 | 0.00 | 76 | 1023.4 |
| 20260507122613 | 40 | 316 | 4.3 | 5.2 | 0.00 | 0.00 | 0.00 | 75 | 1023.2 |
| 20260507122110 | 40 | 70 | 1.7 | 1.7 | 0.00 | 0.00 | 0.00 | 75 | 1023.2 |
| 20260507121606 | 40 | 12 | 2.6 | 3.5 | 0.00 | 0.00 | 0.00 | 75 | 1023.2 |
| 20260507121102 | 40 | 337 | 3.5 | 5.2 | 0.00 | 0.00 | 0.00 | 75 | 1023.1 |
| 20260507120558 | 40 | 286 | 1.7 | 1.7 | 0.00 | 0.00 | 0.00 | 76 | 1023.2 |
| 20260507120055 | 40 | 0 | 2.6 | 5.2 | 0.00 | 0.00 | 0.00 | 75 | 1022.9 |
| 20260507115551 | 40 | 334 | 2.6 | 2.6 | 0.00 | 0.00 | 0.00 | 75 | 1023.2 |
| 20260507115047 | 40 | 1 | 3.5 | 3.5 | 0.00 | 0.00 | 0.00 | 74 | 1023.2 |
| 20260507114543 | 40 | 33 | 2.6 | 2.6 | 0.00 | 0.00 | 0.00 | 74 | 1023.2 |
| 20260507114041 | 41 | 47 | 2.6 | 3.5 | 0.00 | 0.00 | 0.00 | 73 | 1023.2 |
| 20260507113537 | 40 | 23 | 3.5 | 3.5 | 0.00 | 0.00 | 0.00 | 73 | 1022.9 |
| 20260507113035 | 40 | 23 | 1.7 | 2.6 | 0.00 | 0.00 | 0.00 | 72 | 1023.1 |
| 20260507112532 | 40 | 15 | 3.5 | 5.2 | 0.00 | 0.00 | 0.00 | 71 | 1022.9 |
| 20260507112029 | 41 | 17 | 2.6 | 2.6 | 0.00 | 0.00 | 0.00 | 69 | 1023.2 |
| 20260507111526 | 40 | 35 | 0.9 | 0.9 | 0.00 | 0.00 | 0.00 | 69 | 1023.2 |
| 20260507111022 | 41 | 174 | 0.9 | 0.9 | 0.00 | 0.00 | 0.00 | 66 | 1023.2 |
| 20260507110519 | 41 | 18 | 4.3 | 5.2 | 0.00 | 0.00 | 0.00 | 66 | 1022.9 |
| 20260507110016 | 41 | 20 | 5.2 | 6.1 | 0.00 | 0.00 | 0.00 | 67 | 1023.1 |
| 20260507105513 | 41 | 18 | 4.3 | 6.1 | 0.00 | 0.00 | 0.00 | 69 | 1022.9 |
| 20260507105009 | 41 | 53 | 0.9 | 1.7 | 0.00 | 0.00 | 0.00 | 68 | 1022.8 |
| 20260507104506 | 41 | 22 | 1.7 | 1.7 | 0.00 | 0.00 | 0.00 | 67 | 1023.1 |
| 20260507104002 | 41 | 62 | 1.7 | 2.6 | 0.00 | 0.00 | 0.00 | 67 | 1023.1 |
| 20260507103459 | 41 | 39 | 1.7 | 1.7 | 0.00 | 0.00 | 0.00 | 66 | 1023.1 |
| 20260507102955 | 41 | 47 | 3.5 | 3.5 | 0.00 | 0.00 | 0.00 | 67 | 1023.1 |
| 20260507102452 | 41 | 307 | 1.7 | 2.6 | 0.00 | 0.00 | 0.00 | 67 | 1022.8 |
| 20260507101948 | 41 | 22 | 1.7 | 2.6 | 0.00 | 0.00 | 0.00 | 67 | 1022.9 |
| 20260507101443 | 41 | 48 | 1.7 | 1.7 | 0.00 | 0.00 | 0.00 | 67 | 1022.9 |
| 20260507100940 | 41 | 239 | 1.7 | 2.6 | 0.00 | 0.00 | 0.00 | 67 | 1022.9 |
| 20260507100438 | 42 | 124 | 0.9 | 0.9 | 0.00 | 0.00 | 0.00 | 67 | 1022.9 |
| 20260507095936 | 42 | 171 | 0.9 | 0.9 | 0.00 | 0.00 | 0.00 | 67 | 1022.8 |
| 20260507095433 | 42 | 32 | 0.9 | 1.7 | 0.00 | 0.00 | 0.00 | 66 | 1022.8 |
| 20260507094930 | 42 | 45 | 3.5 | 5.2 | 0.00 | 0.00 | 0.00 | 66 | 1023.1 |
| 20260507094426 | 42 | 40 | 1.7 | 1.7 | 0.00 | 0.00 | 0.00 | 65 | 1022.9 |
| 20260507093923 | 42 | 60 | 0.9 | 1.7 | 0.00 | 0.00 | 0.00 | 65 | 1022.8 |
| 20260507093421 | 43 | 358 | 3.5 | 5.2 | 0.00 | 0.00 | 0.00 | 65 | 1022.7 |
| 20260507092919 | 43 | 329 | 1.7 | 2.6 | 0.00 | 0.00 | 0.00 | 64 | 1022.5 |
| 20260507092415 | 43 | 335 | 2.6 | 3.5 | 0.00 | 0.00 | 0.00 | 63 | 1022.7 |
| 20260507091912 | 43 | 28 | 2.6 | 2.6 | 0.00 | 0.00 | 0.00 | 61 | 1022.7 |
| 20260507091408 | 43 | 54 | 3.5 | 3.5 | 0.00 | 0.00 | 0.00 | 57 | 1022.8 |
| 20260507090904 | 43 | 15 | 1.7 | 1.7 | 0.00 | 0.00 | 0.00 | 50 | 1022.7 |
| 20260507090400 | 43 | 325 | 1.7 | 2.6 | 0.00 | 0.00 | 0.00 | 45 | 1022.7 |
| 20260507085857 | 43 | 189 | 0.0 | 0.9 | 0.00 | 0.00 | 0.00 | 42 | 1022.8 |
| 20260507085354 | 44 | 163 | 0.9 | 0.9 | 0.00 | 0.00 | 0.00 | 41 | 1022.7 |
| 20260507084851 | 44 | 206 | 0.9 | 1.7 | 0.00 | 0.00 | 0.00 | 40 | 1022.7 |
| 20260507084348 | 45 | 88 | 0.9 | 1.7 | 0.00 | 0.00 | 0.00 | 39 | 1022.6 |
| 20260507083845 | 46 | 36 | 1.7 | 2.6 | 0.00 | 0.00 | 0.00 | 38 | 1022.4 |
| 20260507083341 | 46 | 232 | 0.9 | 0.9 | 0.00 | 0.00 | 0.00 | 36 | 1022.5 |
| 20260507082838 | 47 | 173 | 0.0 | 0.9 | 0.00 | 0.00 | 0.00 | 34 | 1022.4 |
| 20260507082333 | 48 | 178 | 0.9 | 1.7 | 0.00 | 0.00 | 0.00 | 33 | 1022.5 |
| 20260507081831 | 49 | 128 | 1.7 | 1.7 | 0.00 | 0.00 | 0.00 | 32 | 1022.2 |
| 20260507081327 | 48 | 24 | 0.9 | 2.6 | 0.00 | 0.00 | 0.00 | 31 | 1022.4 |
| 20260507080823 | 48 | 86 | 1.7 | 1.7 | 0.00 | 0.00 | 0.00 | 32 | 1022.4 |
| 20260507080320 | 46 | 110 | 0.0 | 0.9 | 0.00 | 0.00 | 0.00 | 37 | 1022.4 |
| 20260507075815 | 46 | 154 | 0.0 | 0.0 | 0.00 | 0.00 | 0.00 | 36 | 1022.2 |
| 20260507075312 | 47 | 154 | 0.0 | 0.0 | 0.00 | 0.00 | 0.00 | 34 | 1022.1 |
| 20260507074808 | 48 | 154 | 0.9 | 0.9 | 0.00 | 0.00 | 0.00 | 33 | 1022.0 |
| 20260507074306 | 48 | 143 | 0.9 | 0.9 | 0.00 | 0.00 | 0.00 | 33 | 1022.2 |
| 20260507073803 | 49 | 144 | 0.0 | 0.0 | 0.00 | 0.00 | 0.00 | 32 | 1022.2 |
| 20260507073259 | 49 | 135 | 0.9 | 1.7 | 0.00 | 0.00 | 0.00 | 32 | 1022.1 |
| 20260507072757 | 49 | 34 | 1.7 | 2.6 | 0.00 | 0.00 | 0.00 | 32 | 1022.0 |
| 20260507072254 | 49 | 38 | 1.7 | 1.7 | 0.00 | 0.00 | 0.00 | 32 | 1021.8 |
| 20260507071752 | 49 | 51 | 2.6 | 2.6 | 0.00 | 0.00 | 0.00 | 32 | 1021.9 |
| 20260507071248 | 49 | 45 | 2.6 | 2.6 | 0.00 | 0.00 | 0.00 | 33 | 1021.8 |
| 20260507070745 | 49 | 108 | 0.0 | 0.9 | 0.00 | 0.00 | 0.00 | 34 | 1021.8 |
| 20260507070242 | 49 | 119 | 0.9 | 0.9 | 0.00 | 0.00 | 0.00 | 34 | 1021.8 |
| 20260507065738 | 49 | 117 | 0.9 | 0.9 | 0.00 | 0.00 | 0.00 | 34 | 1021.7 |
| 20260507065235 | 49 | 130 | 0.9 | 0.9 | 0.00 | 0.00 | 0.00 | 34 | 1021.9 |